Time;durP1;ratioP1;P1;durP2;ratioP2;P2;SDS_P1;SDS_P2;PMS_P1;PMS_P2;Temp;Humidity;BMP_temperature;BMP_pressure;BME280_temperature;BME280_humidity;BME280_pressure;Samples;Min_cycle;Max_cycle;Signal;HPM_P1;HPM_P2
2024/03/08 00:00:51;;;;;;;;;;;6.10;99.90;;;6.40;54.80;100642.41;4942210;29;19931;-81
2024/03/08 00:03:18;;;;;;;;;;;6.10;99.90;;;6.39;54.66;100635.44;4943536;29;19970;-81
2024/03/08 00:05:46;;;;;;;;;;;6.00;99.90;;;6.36;54.62;100631.34;4941452;29;20359;-81
2024/03/08 00:08:13;;;;;;;;;;;6.00;99.90;;;6.35;54.89;100631.53;4941536;29;19927;-81
2024/03/08 00:10:40;;;;;;;;;;;6.00;99.90;;;6.34;54.79;100628.03;4941924;29;19927;-81
2024/03/08 00:13:07;;;;;;;;;;;6.00;99.90;;;6.33;54.75;100629.03;4942761;29;20360;-81
2024/03/08 00:15:36;;;;;;;;;;;6.00;99.90;;;6.34;55.13;100630.69;4941558;29;20432;-81
2024/03/08 00:18:03;;;;;;;;;;;6.00;99.90;;;6.34;54.93;100632.50;4940974;29;19934;-81
2024/03/08 00:20:33;;;;;;;;;;;6.00;99.90;;;6.31;54.60;100624.94;4941423;29;19934;-81
2024/03/08 00:23:01;;;;;;;;;;;5.90;99.90;;;6.27;54.69;100623.66;4957668;29;20411;-81
2024/03/08 00:25:28;;;;;;;;;;;5.90;99.90;;;6.26;54.63;100627.31;4943050;29;20215;-81
2024/03/08 00:27:56;;;;;;;;;;;5.90;99.90;;;6.26;54.62;100622.00;4942427;29;20404;-81
2024/03/08 00:30:26;;;;;;;;;;;5.90;99.90;;;6.21;54.97;100611.13;4942278;29;20022;-81
2024/03/08 00:32:55;;;;;;;;;;;5.80;99.90;;;6.21;54.78;100619.88;4941342;29;19933;-81
2024/03/08 00:35:22;;;;;;;;;;;5.80;99.90;;;6.19;55.15;100612.09;4942616;29;19926;-81
2024/03/08 00:37:50;;;;;;;;;;;5.80;99.90;;;6.17;54.55;100614.13;4893909;29;19927;-81
2024/03/08 00:40:17;;;;;;;;;;;5.80;99.90;;;6.14;54.72;100619.75;4957012;29;20382;-81
2024/03/08 00:42:44;;;;;;;;;;;5.80;99.90;;;6.13;55.25;100617.31;4941438;29;20025;-81
2024/03/08 00:45:12;;;;;;;;;;;5.70;99.90;;;6.10;54.71;100609.72;4942884;29;19974;-81
2024/03/08 00:47:42;;;;;;;;;;;5.70;99.90;;;6.06;54.88;100613.75;4951057;28;19926;-81
2024/03/08 00:50:12;;;;;;;;;;;5.70;99.90;;;6.01;54.85;100610.81;4961600;29;20343;-81
2024/03/08 00:52:39;;;;;;;;;;;5.60;99.90;;;6.01;54.76;100611.63;4961913;29;19949;-81
2024/03/08 00:55:07;;;;;;;;;;;5.60;99.90;;;5.99;55.25;100608.31;4924599;29;19978;-81
2024/03/08 00:57:35;;;;;;;;;;;5.60;99.90;;;5.99;55.00;100602.19;4942469;29;19950;-81
2024/03/08 01:00:05;;;;;;;;;;;5.60;99.90;;;5.97;54.55;100596.28;4925481;29;20032;-81
2024/03/08 01:02:34;;;;;;;;;;;5.60;99.90;;;5.97;54.87;100596.28;4943123;29;19934;-81
2024/03/08 01:05:01;;;;;;;;;;;5.60;99.90;;;5.97;55.00;100593.63;4942086;29;19927;-81
2024/03/08 01:07:30;;;;;;;;;;;5.60;99.90;;;5.98;54.77;100595.25;4942209;29;19927;-81
2024/03/08 01:09:57;;;;;;;;;;;5.60;99.90;;;5.94;55.26;100592.13;4942438;29;19927;-81
2024/03/08 01:12:25;;;;;;;;;;;5.60;99.90;;;5.94;55.37;100584.19;4942297;29;19931;-81
2024/03/08 01:14:55;;;;;;;;;;;5.60;99.90;;;5.92;55.28;100584.38;4940946;29;20029;-81
2024/03/08 01:17:22;;;;;;;;;;;5.60;99.90;;;5.91;55.20;100574.81;4923917;29;20364;-81
2024/03/08 01:19:49;;;;;;;;;;;5.60;99.90;;;5.90;55.05;100581.06;4924139;29;19926;-81
2024/03/08 01:22:16;;;;;;;;;;;5.60;99.90;;;5.87;55.12;100577.94;4949185;29;19930;-81
2024/03/08 01:24:45;;;;;;;;;;;5.50;99.90;;;5.87;55.29;100560.25;4960890;29;19927;-81
2024/03/08 01:27:13;;;;;;;;;;;5.50;99.90;;;5.86;55.01;100569.19;4961580;29;20008;-81
2024/03/08 01:29:40;;;;;;;;;;;5.50;99.90;;;5.82;54.92;100569.72;4960639;29;20005;-81
2024/03/08 01:32:07;;;;;;;;;;;5.50;99.90;;;5.81;55.10;100565.44;4960646;29;20342;-81
2024/03/08 01:34:35;;;;;;;;;;;5.40;99.90;;;5.79;55.33;100552.38;4961313;29;19927;-81
2024/03/08 01:37:02;;;;;;;;;;;5.40;99.90;;;5.81;55.36;100555.66;4942862;29;19927;-81
2024/03/08 01:39:29;;;;;;;;;;;5.50;99.90;;;5.81;55.74;100557.50;4960415;29;19927;-81
2024/03/08 01:41:58;;;;;;;;;;;5.50;99.90;;;5.81;55.61;100545.09;4943253;29;19926;-81
2024/03/08 01:44:25;;;;;;;;;;;5.50;99.90;;;5.81;55.21;100547.72;4961007;29;19927;-81
2024/03/08 01:46:53;;;;;;;;;;;5.50;99.90;;;5.80;54.91;100537.31;4960479;28;19965;-80
2024/03/08 01:49:22;;;;;;;;;;;5.50;99.90;;;5.76;55.64;100542.16;4944322;29;19930;-81
2024/03/08 01:51:50;;;;;;;;;;;5.40;99.90;;;5.69;55.26;100538.56;4961331;28;19933;-81
2024/03/08 01:54:19;;;;;;;;;;;5.40;99.90;;;5.62;55.39;100537.63;4959945;28;19985;-81
2024/03/08 01:56:47;;;;;;;;;;;5.30;99.90;;;5.60;55.66;100536.97;4942389;29;19926;-81
2024/03/08 01:59:16;;;;;;;;;;;5.30;99.90;;;5.61;55.78;100536.81;4942803;29;19978;-81
2024/03/08 02:01:44;;;;;;;;;;;5.30;99.90;;;5.65;56.04;100530.13;4959995;29;19933;-81
2024/03/08 02:04:11;;;;;;;;;;;5.30;99.90;;;5.60;55.31;100527.19;4927039;29;19927;-81
2024/03/08 02:06:39;;;;;;;;;;;5.30;99.90;;;5.56;55.35;100530.38;4943389;29;19927;-81
2024/03/08 02:09:06;;;;;;;;;;;5.20;99.90;;;5.52;55.69;100529.94;4959792;28;19942;-81
2024/03/08 02:11:34;;;;;;;;;;;5.20;99.90;;;5.51;56.07;100517.69;4959705;29;19962;-81
2024/03/08 02:14:01;;;;;;;;;;;5.50;99.90;;;5.48;55.64;100517.25;4959757;28;20310;-81
2024/03/08 02:16:31;;;;;;;;;;;5.10;99.90;;;5.46;56.15;100524.50;4959131;28;19933;-81
2024/03/08 02:18:58;;;;;;;;;;;5.10;99.90;;;5.45;55.94;100512.28;4958416;29;19954;-81
2024/03/08 02:21:27;;;;;;;;;;;5.10;99.90;;;5.38;56.12;100512.19;4942226;29;19926;-81
2024/03/08 02:23:54;;;;;;;;;;;5.10;99.90;;;5.38;56.61;100512.19;4941676;29;19933;-81
2024/03/08 02:26:22;;;;;;;;;;;5.00;99.90;;;5.38;56.47;100504.25;4941747;29;20396;-81
2024/03/08 02:28:50;;;;;;;;;;;5.00;99.90;;;5.33;56.76;100507.41;4959124;29;19979;-81
2024/03/08 02:31:17;;;;;;;;;;;5.10;99.90;;;5.29;56.91;100505.31;4942048;29;20129;-81
2024/03/08 02:33:46;;;;;;;;;;;4.90;99.90;;;5.27;56.59;100505.50;4957547;29;19927;-81
2024/03/08 02:36:13;;;;;;;;;;;4.90;99.90;;;5.25;56.82;100504.00;4941280;29;19927;-81
2024/03/08 02:38:42;;;;;;;;;;;4.90;99.90;;;5.24;56.57;100499.72;4894022;29;20384;-81
2024/03/08 02:41:10;;;;;;;;;;;4.80;99.90;;;5.25;56.62;100493.44;4941877;29;19978;-81
2024/03/08 02:43:37;;;;;;;;;;;4.90;99.90;;;5.23;56.65;100495.44;4941670;29;19931;-81
2024/03/08 02:46:05;;;;;;;;;;;4.80;99.90;;;5.24;56.87;100494.44;4959895;28;19926;-81
2024/03/08 02:48:32;;;;;;;;;;;4.90;99.90;;;5.22;56.89;100491.97;4940145;29;20388;-81
2024/03/08 02:50:59;;;;;;;;;;;4.90;99.90;;;5.18;56.80;100485.38;4940361;29;20021;-81
2024/03/08 02:53:27;;;;;;;;;;;4.80;99.90;;;5.18;57.20;100488.03;4938632;29;19926;-81
2024/03/08 02:55:56;;;;;;;;;;;4.90;99.90;;;5.18;57.25;100484.56;4955234;29;19975;-81
2024/03/08 02:58:23;;;;;;;;;;;4.80;99.90;;;5.15;57.21;100481.25;4939751;29;20017;-81
2024/03/08 03:00:50;;;;;;;;;;;4.80;99.90;;;5.11;57.20;100474.66;4940375;29;20356;-81
2024/03/08 03:03:17;;;;;;;;;;;4.80;99.90;;;5.10;57.06;100477.50;4940447;29;20396;-81
2024/03/08 03:05:45;;;;;;;;;;;4.80;99.90;;;5.10;57.11;100477.50;4939113;29;20396;-81
2024/03/08 03:08:13;;;;;;;;;;;4.70;99.90;;;5.10;57.31;100477.50;4940188;29;19931;-81
2024/03/08 03:10:40;;;;;;;;;;;4.70;99.90;;;5.08;57.12;100468.94;4939969;29;20014;-81
2024/03/08 03:13:08;;;;;;;;;;;4.70;99.90;;;5.05;57.11;100459.53;4954320;29;20444;-81
2024/03/08 03:15:36;;;;;;;;;;;4.70;99.90;;;5.04;57.55;100463.16;4939584;29;19927;-81
2024/03/08 03:18:03;;;;;;;;;;;4.70;99.90;;;5.10;57.72;100461.63;4938684;29;19933;-80
2024/03/08 03:20:33;;;;;;;;;;;4.70;99.90;;;5.11;57.56;100458.81;4939953;29;20356;-81
2024/03/08 03:23:03;;;;;;;;;;;4.70;99.90;;;5.09;57.28;100454.72;4940448;29;19927;-81
2024/03/08 03:25:34;;;;;;;;;;;4.70;99.90;;;5.07;57.15;100460.16;4938478;29;19957;-81
2024/03/08 03:28:02;;;;;;;;;;;4.70;99.90;;;5.06;57.34;100453.22;4939276;29;20416;-81
2024/03/08 03:30:32;;;;;;;;;;;4.70;99.90;;;5.06;57.81;100453.22;4939962;29;19927;-81
2024/03/08 03:33:01;;;;;;;;;;;4.70;99.90;;;5.04;57.29;100454.41;4938770;29;19926;-81
2024/03/08 03:35:30;;;;;;;;;;;4.70;99.90;;;5.02;57.19;100453.75;4940573;29;19931;-81
2024/03/08 03:38:06;;;;;;;;;;;4.60;99.90;;;4.98;57.74;100448.00;4938438;29;20022;-81
2024/03/08 03:40:33;;;;;;;;;;;4.60;99.90;;;4.98;57.40;100449.81;4938629;29;20026;-81
2024/03/08 03:43:02;;;;;;;;;;;4.60;99.90;;;4.98;57.33;100442.72;4938317;29;19926;-81
2024/03/08 03:45:34;;;;;;;;;;;4.60;99.90;;;4.97;57.56;100438.41;4939990;29;19934;-81
2024/03/08 03:48:03;;;;;;;;;;;4.60;99.90;;;4.92;57.59;100435.47;4951524;29;20376;-81
2024/03/08 03:50:34;;;;;;;;;;;4.60;99.90;;;4.89;57.57;100434.03;4957997;28;20013;-81
2024/03/08 03:53:01;;;;;;;;;;;4.50;99.90;;;4.87;57.65;100438.66;4958453;29;19961;-81
2024/03/08 03:55:29;;;;;;;;;;;4.50;99.90;;;4.82;57.83;100435.72;4959559;29;20357;-81
2024/03/08 03:57:58;;;;;;;;;;;4.50;99.90;;;4.82;58.03;100441.00;4958810;29;19981;-81
2024/03/08 04:00:26;;;;;;;;;;;4.50;99.90;;;4.78;57.58;100436.22;4958665;28;19927;-81
2024/03/08 04:02:58;;;;;;;;;;;4.40;99.90;;;4.76;57.81;100433.78;4958251;29;19926;-81
2024/03/08 04:05:26;;;;;;;;;;;4.40;99.90;;;4.73;57.84;100438.56;4941684;29;19934;-81
2024/03/08 04:07:53;;;;;;;;;;;4.40;99.90;;;4.72;57.53;100434.28;4925065;29;20309;-81
2024/03/08 04:10:20;;;;;;;;;;;4.40;99.90;;;4.70;58.06;100425.72;4957865;29;20029;-81
2024/03/08 04:12:47;;;;;;;;;;;4.30;99.90;;;4.70;57.99;100431.00;4958846;28;19927;-81
2024/03/08 04:15:15;;;;;;;;;;;4.30;99.90;;;4.68;58.01;100433.00;4940818;29;20029;-80
2024/03/08 04:17:42;;;;;;;;;;;4.30;99.90;;;4.68;58.25;100433.00;4962058;29;20392;-81
2024/03/08 04:20:14;;;;;;;;;;;4.30;99.90;;;4.62;58.36;100432.69;4962123;29;19989;-80
2024/03/08 04:22:41;;;;;;;;;;;4.30;99.90;;;4.59;58.05;100427.78;4962078;29;20315;-82
2024/03/08 04:25:09;;;;;;;;;;;4.20;99.90;;;4.60;58.55;100426.75;4961816;28;19930;-80
2024/03/08 04:27:37;;;;;;;;;;;4.20;99.90;;;4.59;58.21;100427.78;4961122;29;19932;-82
2024/03/08 04:30:07;;;;;;;;;;;4.20;99.90;;;4.57;58.27;100429.75;4960257;29;19969;-82
2024/03/08 04:32:35;;;;;;;;;;;4.20;99.90;;;4.55;58.63;100426.47;4959556;29;19933;-81
2024/03/08 04:35:03;;;;;;;;;;;4.20;99.90;;;4.55;58.28;100423.81;4944004;29;19927;-80
2024/03/08 04:37:31;;;;;;;;;;;4.20;99.90;;;4.56;58.56;100414.91;4944511;29;19926;-81
2024/03/08 04:39:59;;;;;;;;;;;4.20;99.90;;;4.57;58.43;100418.34;4943005;29;20426;-81
2024/03/08 04:42:26;;;;;;;;;;;4.20;99.90;;;4.56;58.40;100409.63;4942577;29;19930;-80
2024/03/08 04:44:54;;;;;;;;;;;4.20;99.90;;;4.54;58.89;100411.63;4943114;29;20021;-80
2024/03/08 04:47:21;;;;;;;;;;;4.10;99.90;;;4.54;58.48;100411.63;4940247;29;20005;-80
2024/03/08 04:49:50;;;;;;;;;;;4.20;99.90;;;4.49;58.76;100407.84;4940014;29;20025;-81
2024/03/08 04:52:17;;;;;;;;;;;4.10;99.90;;;4.48;58.81;100406.19;4941237;29;19927;-81
2024/03/08 04:54:46;;;;;;;;;;;4.10;99.90;;;4.47;58.61;100412.47;4939135;29;19927;-81
2024/03/08 04:57:13;;;;;;;;;;;4.40;99.90;;;4.44;58.98;100408.38;4940484;29;20293;-81
2024/03/08 04:59:40;;;;;;;;;;;4.10;99.90;;;4.44;58.72;100405.75;4939480;29;19954;-81
2024/03/08 05:02:08;;;;;;;;;;;4.10;99.90;;;4.44;58.65;100411.03;4941242;29;19927;-81
2024/03/08 05:04:35;;;;;;;;;;;4.10;99.90;;;4.43;58.54;100404.06;4941308;29;19926;-81
2024/03/08 05:07:03;;;;;;;;;;;4.10;99.90;;;4.42;58.98;100399.78;4941563;29;19934;-82
2024/03/08 05:09:32;;;;;;;;;;;4.10;99.90;;;4.40;58.81;100396.50;4940651;29;19933;-81
2024/03/08 05:12:01;;;;;;;;;;;4.10;99.90;;;4.39;58.76;100394.84;4892157;29;20336;-81
2024/03/08 05:14:29;;;;;;;;;;;4.00;99.90;;;4.37;58.87;100387.09;4939601;29;19937;-81
2024/03/08 05:16:56;;;;;;;;;;;4.00;99.90;;;4.35;58.93;100390.94;4940533;29;20411;-81
2024/03/08 05:19:23;;;;;;;;;;;4.00;99.90;;;4.32;59.04;100394.72;4938648;29;19926;-81
2024/03/08 05:21:51;;;;;;;;;;;4.00;99.90;;;4.27;59.12;100391.78;4938787;29;20388;-80
2024/03/08 05:24:20;;;;;;;;;;;3.90;99.90;;;4.27;59.02;100386.50;4939050;29;20001;-80
2024/03/08 05:26:47;;;;;;;;;;;3.90;99.90;;;4.27;58.99;100385.69;4938676;29;19958;-81
2024/03/08 05:29:16;;;;;;;;;;;4.00;99.90;;;4.25;59.13;100385.03;4938320;29;19926;-81
2024/03/08 05:31:47;;;;;;;;;;;3.90;99.90;;;4.25;59.07;100382.41;4938664;29;20025;-81
2024/03/08 05:34:15;;;;;;;;;;;3.80;99.90;;;4.21;59.17;100387.19;4938252;29;19993;-81
2024/03/08 05:36:44;;;;;;;;;;;3.80;99.90;;;4.22;59.38;100386.19;4938681;29;19931;-81
2024/03/08 05:39:11;;;;;;;;;;;3.80;99.90;;;4.20;59.53;100388.19;4938410;29;19938;-81
2024/03/08 05:41:39;;;;;;;;;;;3.80;99.90;;;4.22;59.34;100380.91;4940556;29;19931;-81
2024/03/08 05:44:06;;;;;;;;;;;3.80;99.90;;;4.19;59.32;100377.78;4922990;29;20025;-81
2024/03/08 05:46:35;;;;;;;;;;;3.80;99.90;;;4.13;59.41;100379.31;4939928;29;19930;-80
2024/03/08 05:49:05;;;;;;;;;;;3.90;99.90;;;4.12;59.59;100373.19;4959484;29;19927;-82
2024/03/08 05:51:34;;;;;;;;;;;3.80;99.90;;;4.11;59.83;100379.47;4960339;29;20380;-81
2024/03/08 05:54:02;;;;;;;;;;;3.70;99.90;;;4.11;59.62;100376.84;4943281;29;19926;-81
2024/03/08 05:56:30;;;;;;;;;;;3.70;99.90;;;4.09;59.56;100372.72;4943407;29;19926;-81
2024/03/08 05:58:57;;;;;;;;;;;3.70;99.90;;;4.04;59.64;100370.59;4943110;29;19926;-81
2024/03/08 06:01:25;;;;;;;;;;;3.70;99.90;;;4.02;59.58;100371.75;4960517;29;19950;-81
2024/03/08 06:03:55;;;;;;;;;;;3.70;99.90;;;4.00;59.57;100374.59;4943420;29;19994;-81
2024/03/08 06:06:23;;;;;;;;;;;3.70;99.90;;;3.98;59.77;100378.38;4943007;29;19927;-83
2024/03/08 06:08:51;;;;;;;;;;;3.70;99.90;;;3.97;59.88;100363.53;4959982;29;20315;-81
2024/03/08 06:11:19;;;;;;;;;;;3.60;99.90;;;4.00;59.84;100377.22;4958359;29;19933;-81
2024/03/08 06:13:46;;;;;;;;;;;3.70;99.90;;;4.02;60.11;100374.41;4942938;29;20037;-81
2024/03/08 06:16:14;;;;;;;;;;;3.70;99.90;;;4.00;59.88;100368.47;4942546;29;19978;-81
2024/03/08 06:18:42;;;;;;;;;;;3.70;99.90;;;3.95;60.18;100368.97;4942834;29;20332;-81
2024/03/08 06:21:12;;;;;;;;;;;3.70;99.90;;;3.96;60.29;100369.81;4959317;29;19970;-81
2024/03/08 06:23:40;;;;;;;;;;;3.70;99.90;;;3.95;60.11;100361.06;4958906;29;20409;-82
2024/03/08 06:26:07;;;;;;;;;;;3.70;99.90;;;3.95;60.38;100373.44;4941101;29;19926;-83
2024/03/08 06:28:35;;;;;;;;;;;3.70;99.90;;;3.94;60.45;100369.97;4957761;29;19974;-83
2024/03/08 06:31:03;;;;;;;;;;;3.70;99.90;;;3.96;60.05;100370.63;4957186;29;19926;-84
2024/03/08 06:33:32;;;;;;;;;;;3.60;99.90;;;3.94;60.08;100358.59;4956778;29;19927;-85
2024/03/08 06:35:59;;;;;;;;;;;3.60;99.90;;;3.94;60.41;100367.31;4942226;29;20013;-84
2024/03/08 06:38:30;;;;;;;;;;;3.60;99.90;;;3.97;60.73;100369.63;4940900;29;19969;-83
2024/03/08 06:40:58;;;;;;;;;;;3.70;99.90;;;4.01;60.47;100367.50;4941028;29;19933;-82
2024/03/08 06:43:32;;;;;;;;;;;3.70;99.90;;;4.05;60.42;100371.41;4940837;29;19926;-83
2024/03/08 06:46:00;;;;;;;;;;;3.80;99.90;;;4.06;60.30;100362.53;4958571;29;19937;-82
2024/03/08 06:48:29;;;;;;;;;;;3.80;99.90;;;4.07;60.58;100362.34;4957245;28;19933;-81
2024/03/08 06:50:56;;;;;;;;;;;3.80;99.90;;;4.08;60.75;100361.34;4941266;29;19950;-81
2024/03/08 06:53:24;;;;;;;;;;;3.80;99.90;;;4.13;60.77;100359.00;4958120;28;19989;-82
2024/03/08 06:55:54;;;;;;;;;;;3.80;99.90;;;4.17;60.63;100367.41;4939981;29;19927;-82
2024/03/08 06:58:21;;;;;;;;;;;3.90;99.90;;;4.17;60.29;100370.03;4940096;29;20372;-86
2024/03/08 07:00:51;;;;;;;;;;;3.90;99.90;;;4.23;60.64;100364.06;4957793;28;20296;-83
2024/03/08 07:03:21;;;;;;;;;;;4.00;99.90;;;4.25;60.25;100361.28;4941922;29;20303;-85
2024/03/08 07:05:49;;;;;;;;;;;4.00;99.90;;;4.26;60.64;100365.56;4959869;29;19969;-84
2024/03/08 07:08:17;;;;;;;;;;;4.00;99.90;;;4.30;60.41;100366.88;4940883;29;19926;-81
2024/03/08 07:10:45;;;;;;;;;;;4.00;99.90;;;4.33;59.99;100369.97;4956537;28;19933;-81
2024/03/08 07:13:13;;;;;;;;;;;4.10;99.90;;;4.33;60.31;100359.41;4952338;29;20080;-81
2024/03/08 07:15:40;;;;;;;;;;;4.10;99.90;;;4.38;60.54;100366.81;4940646;29;19927;-81
2024/03/08 07:18:08;;;;;;;;;;;4.10;99.90;;;4.38;60.18;100372.09;4958013;29;19927;-81
2024/03/08 07:20:37;;;;;;;;;;;4.10;99.90;;;4.42;59.98;100364.66;4956187;29;19930;-81
2024/03/08 07:23:04;;;;;;;;;;;4.10;99.90;;;4.42;59.97;100362.81;4940534;29;19934;-81
2024/03/08 07:25:30;;;;;;;;;;;4.10;99.90;;;4.44;60.17;100366.13;4958831;29;19931;-81
2024/03/08 07:27:58;;;;;;;;;;;4.20;99.90;;;4.42;59.75;100365.47;4941590;29;19934;-81
2024/03/08 07:33:14;;;;;;;;;;;4.20;99.90;;;4.55;60.14;100365.72;4952487;29;19926;-81
2024/03/08 07:35:42;;;;;;;;;;;4.30;99.90;;;4.57;60.02;100347.06;4938452;29;19949;-81
2024/03/08 07:38:09;;;;;;;;;;;4.40;99.90;;;4.59;60.27;100359.09;4922381;29;19989;-82
2024/03/08 07:40:39;;;;;;;;;;;4.40;99.90;;;4.62;60.05;100353.44;4939229;29;19926;-81
2024/03/08 07:43:06;;;;;;;;;;;4.40;99.90;;;4.60;59.85;100352.81;4939392;29;19934;-81
2024/03/08 07:45:35;;;;;;;;;;;4.40;99.90;;;4.60;59.84;100352.81;4922550;29;20352;-81
2024/03/08 07:48:03;;;;;;;;;;;4.40;99.90;;;4.65;60.18;100345.19;4923447;29;19970;-81
2024/03/08 07:50:30;;;;;;;;;;;4.40;99.90;;;4.73;60.04;100354.03;4919424;29;19931;-81
2024/03/08 07:52:57;;;;;;;;;;;4.50;99.90;;;4.80;60.10;100344.44;4948039;29;19978;-82
2024/03/08 07:55:26;;;;;;;;;;;4.60;99.90;;;4.87;60.16;100343.53;4939109;29;20394;-82
2024/03/08 07:57:53;;;;;;;;;;;4.70;99.90;;;4.91;59.89;100338.72;4942239;29;20352;-81
2024/03/08 08:00:24;;;;;;;;;;;4.80;99.90;;;4.98;59.88;100330.88;4942387;29;19970;-82
2024/03/08 08:02:53;;;;;;;;;;;4.80;99.90;;;5.06;59.91;100334.28;4957061;29;19931;-82
2024/03/08 08:05:21;;;;;;;;;;;4.90;99.90;;;5.11;59.69;100331.94;4956685;29;19982;-82
2024/03/08 08:07:49;;;;;;;;;;;4.90;99.90;;;5.16;59.94;100328.75;4940704;29;19927;-82
2024/03/08 08:10:18;;;;;;;;;;;5.00;99.90;;;5.23;59.64;100320.94;4945086;29;19926;-82
2024/03/08 08:12:46;;;;;;;;;;;5.10;99.90;;;5.32;59.58;100314.56;4949732;29;20384;-82
2024/03/08 08:15:14;;;;;;;;;;;5.20;99.90;;;5.37;60.00;100314.84;4941954;29;19927;-82
2024/03/08 08:17:42;;;;;;;;;;;5.30;99.90;;;5.42;59.86;100307.19;4941086;29;20399;-82
2024/03/08 08:20:12;;;;;;;;;;;5.30;99.90;;;5.47;59.39;100310.13;4940484;29;19926;-82
2024/03/08 08:22:40;;;;;;;;;;;5.40;99.90;;;5.51;59.19;100300.78;4940650;29;19933;-82
2024/03/08 08:25:08;;;;;;;;;;;5.50;99.90;;;5.50;58.67;100293.88;4956456;29;19927;-82
2024/03/08 08:27:36;;;;;;;;;;;5.50;99.90;;;5.57;58.75;100292.16;4908525;29;19934;-82
2024/03/08 08:30:08;;;;;;;;;;;5.60;99.90;;;5.61;58.46;100290.78;4939252;29;19927;-82
2024/03/08 08:32:36;;;;;;;;;;;5.60;99.90;;;5.65;58.22;100284.09;4941522;29;19981;-82
2024/03/08 08:35:04;;;;;;;;;;;5.70;99.90;;;5.69;58.55;100282.72;4959867;29;20017;-83
2024/03/08 08:37:33;;;;;;;;;;;5.70;99.90;;;5.74;58.45;100276.06;4940983;29;20392;-82
2024/03/08 08:40:05;;;;;;;;;;;5.80;99.90;;;5.79;58.56;100265.75;4941162;29;19982;-81
2024/03/08 08:42:32;;;;;;;;;;;5.80;99.90;;;5.85;58.88;100265.00;4930369;29;19927;-82
2024/03/08 08:45:01;;;;;;;;;;;5.90;99.90;;;5.84;58.07;100268.66;4956037;28;19926;-82
2024/03/08 08:47:28;;;;;;;;;;;5.90;99.90;;;5.87;57.72;100263.00;4939933;29;19930;-82
2024/03/08 08:49:55;;;;;;;;;;;6.00;99.90;;;5.85;57.62;100257.88;4940491;29;19926;-82
2024/03/08 08:52:23;;;;;;;;;;;5.90;99.90;;;5.88;57.75;100257.53;4941992;29;19954;-82
2024/03/08 08:54:52;;;;;;;;;;;6.00;99.90;;;5.84;57.49;100240.38;4941144;29;20395;-82
2024/03/08 08:57:20;;;;;;;;;;;5.90;99.90;;;5.90;57.90;100250.25;4940620;29;20356;-82
2024/03/08 08:59:47;;;;;;;;;;;6.00;99.90;;;5.95;57.73;100233.78;4936910;29;19931;-82
2024/03/08 09:02:16;;;;;;;;;;;6.00;99.90;;;6.05;58.38;100241.44;4920807;29;19931;-82
2024/03/08 09:04:44;;;;;;;;;;;6.10;99.90;;;6.11;57.46;100238.06;4922494;29;20022;-82
2024/03/08 09:07:13;;;;;;;;;;;6.20;99.90;;;6.14;57.20;100232.38;4920654;29;20418;-82
2024/03/08 09:09:41;;;;;;;;;;;6.20;99.90;;;6.16;57.24;100231.19;4927917;29;20108;-82
2024/03/08 09:12:13;;;;;;;;;;;6.30;99.90;;;6.19;56.87;100230.78;4941595;29;19927;-82
2024/03/08 09:14:41;;;;;;;;;;;6.30;99.90;;;6.21;57.24;100221.88;4941081;29;19934;-82
2024/03/08 09:17:08;;;;;;;;;;;6.30;99.90;;;6.23;57.16;100214.53;4939948;29;20041;-82
2024/03/08 09:19:36;;;;;;;;;;;6.40;99.90;;;6.25;56.93;100223.13;4941148;29;19927;-82
2024/03/08 09:22:04;;;;;;;;;;;6.40;99.90;;;6.28;56.50;100225.38;4941062;29;20380;-82
2024/03/08 09:24:32;;;;;;;;;;;6.40;99.90;;;6.30;56.92;100218.09;4940895;29;20057;-82
2024/03/08 09:26:59;;;;;;;;;;;6.40;99.90;;;6.34;56.45;100221.97;4939805;29;19926;-82
2024/03/08 09:29:28;;;;;;;;;;;6.50;99.90;;;6.35;56.49;100211.22;4940593;29;20427;-82
2024/03/08 09:31:55;;;;;;;;;;;6.50;99.90;;;6.38;56.18;100212.66;4939498;29;19927;-82
2024/03/08 09:34:23;;;;;;;;;;;6.50;99.90;;;6.40;56.22;100208.81;4940571;29;19950;-82
2024/03/08 09:36:51;;;;;;;;;;;6.60;99.90;;;6.43;56.10;100204.94;4908345;29;20021;-82
2024/03/08 09:39:20;;;;;;;;;;;6.60;99.90;;;6.45;56.14;100213.53;4923708;29;19927;-81
2024/03/08 09:41:49;;;;;;;;;;;6.60;99.90;;;6.44;55.63;100193.34;4941973;29;19927;-81
2024/03/08 09:44:19;;;;;;;;;;;6.60;99.90;;;6.44;55.40;100206.59;4955998;28;20308;-82
2024/03/08 09:46:51;;;;;;;;;;;6.60;99.90;;;6.45;55.38;100192.34;4942249;28;20025;-81
2024/03/08 09:49:18;;;;;;;;;;;6.60;99.90;;;6.46;55.54;100180.75;4958791;28;19981;-81
2024/03/08 09:51:45;;;;;;;;;;;6.60;99.90;;;6.50;55.62;100174.06;4942554;29;19927;-81
2024/03/08 09:54:13;;;;;;;;;;;6.60;99.90;;;6.53;55.90;100167.53;4960012;29;19930;-82
2024/03/08 09:56:41;;;;;;;;;;;6.70;99.90;;;6.57;55.93;100166.97;4959906;29;19926;-81
2024/03/08 10:01:52;;;;;;;;;;;6.80;99.90;;;6.59;55.03;100157.00;4930514;29;19945;-82
2024/03/08 10:04:20;;;;;;;;;;;6.80;99.90;;;6.66;55.26;100160.50;4938732;29;19962;-81
2024/03/08 10:06:48;;;;;;;;;;;6.80;99.90;;;6.69;55.11;100149.53;4935492;29;19934;-81
2024/03/08 10:09:16;;;;;;;;;;;6.80;99.90;;;6.72;54.83;100158.91;4924479;29;20379;-81
2024/03/08 10:11:43;;;;;;;;;;;6.90;99.90;;;6.72;54.47;100143.81;4939973;29;19941;-81
2024/03/08 10:14:11;;;;;;;;;;;6.90;99.90;;;6.79;55.14;100148.38;4957227;28;20351;-82
2024/03/08 10:16:41;;;;;;;;;;;7.00;99.90;;;6.84;54.65;100143.31;4959609;28;19926;-82
2024/03/08 10:19:12;;;;;;;;;;;7.00;99.90;;;6.84;54.21;100145.97;4950064;28;19955;-82
2024/03/08 10:21:49;;;;;;;;;;;7.00;99.90;;;6.85;54.44;100139.63;4958550;28;19926;-81
2024/03/08 10:24:16;;;;;;;;;;;7.00;99.90;;;6.85;54.55;100134.34;4942122;29;19926;-81
2024/03/08 10:26:44;;;;;;;;;;;7.00;99.90;;;6.88;54.48;100132.13;4942196;29;19926;-81
2024/03/08 10:29:15;;;;;;;;;;;7.00;99.90;;;6.91;54.96;100129.06;4941889;29;19930;-83
2024/03/08 10:31:44;;;;;;;;;;;7.10;99.90;;;6.93;54.59;100129.69;4957773;29;20425;-81
2024/03/08 10:34:13;;;;;;;;;;;7.10;99.90;;;6.97;54.67;100119.50;4940299;29;20026;-81
2024/03/08 10:36:41;;;;;;;;;;;7.20;99.90;;;7.03;54.47;100120.53;4935156;29;19977;-81
2024/03/08 10:39:17;;;;;;;;;;;7.20;99.90;;;7.06;54.27;100113.03;4926560;29;19932;-81
2024/03/08 10:41:47;;;;;;;;;;;7.30;99.90;;;7.08;54.14;100126.91;4903823;29;19927;-81
2024/03/08 10:44:24;;;;;;;;;;;7.30;99.90;;;7.10;53.73;100105.50;4911956;29;19927;-81
2024/03/08 10:47:04;;;;;;;;;;;7.30;99.90;;;7.14;53.65;100115.50;4940761;29;19935;-81
2024/03/08 10:49:38;;;;;;;;;;;7.30;99.90;;;7.15;53.52;100097.78;4939061;29;19934;-81
2024/03/08 10:52:08;;;;;;;;;;;7.30;99.90;;;7.20;54.27;100098.00;4927922;29;19926;-81
2024/03/08 10:54:38;;;;;;;;;;;7.40;99.90;;;7.22;53.66;100098.59;4960031;29;19949;-81
2024/03/08 10:57:08;;;;;;;;;;;7.40;99.90;;;7.25;53.70;100094.75;4959721;28;19930;-81
2024/03/08 10:59:36;;;;;;;;;;;7.40;99.90;;;7.30;53.73;100094.97;4959507;28;20004;-81
2024/03/08 11:02:04;;;;;;;;;;;7.50;99.90;;;7.34;53.95;100080.28;4959393;28;20013;-81
2024/03/08 11:04:34;;;;;;;;;;;7.50;99.90;;;7.35;53.79;100081.94;4959247;29;19927;-81
2024/03/08 11:07:06;;;;;;;;;;;7.50;99.90;;;7.41;54.35;100075.81;4960249;28;19926;-82
2024/03/08 11:09:34;;;;;;;;;;;7.60;99.90;;;7.45;54.39;100061.94;4916844;29;19930;-81
2024/03/08 11:12:25;;;;;;;;;;;7.60;99.90;;;7.52;54.57;100059.31;4960823;28;19927;-81
2024/03/08 11:14:53;;;;;;;;;;;7.70;99.90;;;7.53;54.59;100066.25;4939017;29;20423;-82
2024/03/08 11:17:27;;;;;;;;;;;7.70;99.90;;;7.59;55.12;100052.19;4939401;29;20416;-84
2024/03/08 11:20:01;;;;;;;;;;;7.80;99.90;;;7.61;54.40;100055.47;4948336;29;19926;-82
2024/03/08 11:22:31;;;;;;;;;;;7.80;99.90;;;7.60;54.41;100047.69;4942797;29;19926;-81
2024/03/08 11:25:01;;;;;;;;;;;7.80;99.90;;;7.64;54.75;100043.63;4942575;29;19930;-81
2024/03/08 11:27:31;;;;;;;;;;;7.80;99.90;;;7.68;54.39;100035.03;4960670;28;20021;-81
2024/03/08 11:30:10;;;;;;;;;;;7.90;99.90;;;7.68;53.93;100035.03;4959625;29;19926;-81
2024/03/08 11:32:38;;;;;;;;;;;8.00;99.90;;;7.70;54.12;100035.66;4959757;29;19927;-81
2024/03/08 11:35:19;;;;;;;;;;;8.00;99.90;;;7.67;54.41;100022.81;4942243;29;19933;-81